createdAt,value
2023-01-02T00:01:37.044Z,90.35
2023-01-02T00:04:05.485Z,90.45
2023-01-02T00:06:34.491Z,90.47
2023-01-02T00:09:05.343Z,90.15
2023-01-02T00:11:33.539Z,90.18
2023-01-02T00:14:02.024Z,90.22
2023-01-02T00:16:30.256Z,90.41
2023-01-02T00:18:58.402Z,90.16
2023-01-02T00:21:26.557Z,89.79
2023-01-02T00:23:54.691Z,89.91
2023-01-02T00:26:24.166Z,90.37
2023-01-02T00:28:52.353Z,90.17
2023-01-02T00:31:20.531Z,90.00
2023-01-02T00:33:48.693Z,89.96
2023-01-02T00:36:17.057Z,90.46
2023-01-02T00:38:45.289Z,90.73
2023-01-02T00:41:13.442Z,91.21
2023-01-02T00:43:43.586Z,91.64
2023-01-02T00:46:12.484Z,91.55
2023-01-02T00:48:41.028Z,91.97
2023-01-02T00:51:09.689Z,91.53
2023-01-02T00:53:38.503Z,91.49
2023-01-02T00:56:07.010Z,91.79
2023-01-02T00:58:35.205Z,91.76
2023-01-02T01:01:05.205Z,91.95
2023-01-02T01:03:33.557Z,91.83
2023-01-02T01:06:07.699Z,92.13
2023-01-02T01:08:36.309Z,92.14
2023-01-02T01:11:08.396Z,92.34
2023-01-02T01:13:37.005Z,92.70
2023-01-02T01:16:08.863Z,93.56
2023-01-02T01:18:37.939Z,93.75
2023-01-02T01:21:09.863Z,93.83
2023-01-02T01:23:38.869Z,94.48
2023-01-02T01:26:08.287Z,94.68
2023-01-02T01:28:36.975Z,94.78
2023-01-02T01:31:08.772Z,95.17
2023-01-02T01:33:37.164Z,95.59
2023-01-02T01:36:07.062Z,95.90
2023-01-02T01:38:35.458Z,95.72
2023-01-02T01:41:03.981Z,95.95
2023-01-02T01:43:40.540Z,95.92
2023-01-02T01:46:19.013Z,96.15
2023-01-02T01:48:49.649Z,96.39
2023-01-02T01:51:20.344Z,96.26
2023-01-02T01:53:54.576Z,96.11
2023-01-02T01:56:23.152Z,96.08
2023-01-02T01:58:51.375Z,96.10
2023-01-02T02:01:21.000Z,95.95
2023-01-02T02:03:51.979Z,95.60
2023-01-02T02:06:20.541Z,95.60
2023-01-02T02:08:54.375Z,95.62
2023-01-02T02:11:22.625Z,95.50
2023-01-02T02:13:51.834Z,95.14
2023-01-02T02:16:29.974Z,95.15
2023-01-02T02:19:28.444Z,95.33
2023-01-02T02:22:19.482Z,95.92
2023-01-02T02:25:17.443Z,96.42
2023-01-02T02:28:08.413Z,96.54
2023-01-02T02:30:41.811Z,96.89
2023-01-02T02:33:23.947Z,96.75
2023-01-02T02:36:04.209Z,95.77
2023-01-02T02:38:48.951Z,94.59
2023-01-02T02:41:32.660Z,93.41
2023-01-02T02:44:07.716Z,93.17
2023-01-02T02:46:48.836Z,92.81
2023-01-02T02:49:29.131Z,92.57
2023-01-02T02:52:06.365Z,92.33
2023-01-02T02:54:39.544Z,92.19
2023-01-02T02:57:09.208Z,92.24
2023-01-02T02:59:39.692Z,92.06
2023-01-02T03:02:09.353Z,91.96
2023-01-02T03:04:38.379Z,91.78
2023-01-02T03:07:16.714Z,91.18
2023-01-02T03:09:50.439Z,91.09
2023-01-02T03:12:34.698Z,90.10
2023-01-02T03:15:15.530Z,90.00
2023-01-02T03:17:55.863Z,90.24
2023-01-02T03:20:29.530Z,90.14
2023-01-02T03:23:05.482Z,90.56
2023-01-02T03:25:35.269Z,90.13
2023-01-02T03:28:07.330Z,89.95
2023-01-02T03:30:39.095Z,89.50
2023-01-02T03:33:12.688Z,89.44
2023-01-02T03:35:45.885Z,88.30
2023-01-02T03:38:16.546Z,86.99
2023-01-02T03:40:48.878Z,86.48
2023-01-02T03:43:19.591Z,85.93
2023-01-02T03:45:52.611Z,85.36
2023-01-02T03:48:29.886Z,84.36
2023-01-02T03:51:00.659Z,83.98
2023-01-02T03:53:31.434Z,83.51
2023-01-02T03:56:08.783Z,83.00
2023-01-02T03:58:44.582Z,82.39
2023-01-02T04:01:18.634Z,82.04
2023-01-02T04:03:53.162Z,81.83
2023-01-02T04:06:29.249Z,81.48
2023-01-02T04:09:05.728Z,81.27
2023-01-02T04:11:36.652Z,80.68
2023-01-02T04:14:11.327Z,80.84
2023-01-02T04:16:42.329Z,80.56
2023-01-02T04:19:16.430Z,80.22
2023-01-02T04:21:46.679Z,80.05
2023-01-02T04:24:18.410Z,80.32
2023-01-02T04:26:49.344Z,80.44
2023-01-02T04:29:17.891Z,79.92
2023-01-02T04:31:52.228Z,80.05
2023-01-02T04:34:23.528Z,79.60
2023-01-02T04:36:51.752Z,79.36
2023-01-02T04:39:24.164Z,79.30
2023-01-02T04:41:52.331Z,79.44
2023-01-02T04:44:20.480Z,79.51
2023-01-02T04:46:48.675Z,79.11
2023-01-02T04:49:16.891Z,79.48
2023-01-02T04:51:46.635Z,79.17
2023-01-02T04:54:14.879Z,78.95
2023-01-02T04:56:43.023Z,79.17
2023-01-02T04:59:11.168Z,78.95
2023-01-02T05:01:39.513Z,79.13
2023-01-02T05:04:07.783Z,78.91
2023-01-02T05:06:35.980Z,78.84
2023-01-02T05:09:05.488Z,79.32
2023-01-02T05:11:33.667Z,78.89
2023-01-02T05:14:07.164Z,79.33
2023-01-02T05:16:35.901Z,79.51
2023-01-02T05:19:04.229Z,79.52
2023-01-02T05:21:50.024Z,79.67
2023-01-02T05:24:19.629Z,79.13
2023-01-02T05:26:47.770Z,79.44
2023-01-02T05:29:15.903Z,79.57
2023-01-02T05:31:44.096Z,79.23
2023-01-02T05:34:15.432Z,79.10
2023-01-02T05:36:43.687Z,79.08
2023-01-02T05:39:14.030Z,78.68
2023-01-02T05:41:43.805Z,78.72
2023-01-02T05:44:12.308Z,78.76
2023-01-02T05:46:40.999Z,79.00
2023-01-02T05:49:10.179Z,79.08
2023-01-02T05:51:38.930Z,79.34
2023-01-02T05:54:07.826Z,79.18
2023-01-02T05:56:36.061Z,79.37
2023-01-02T05:59:07.633Z,78.98
2023-01-02T06:01:36.410Z,78.76
2023-01-02T06:04:05.386Z,78.76
2023-01-02T06:06:35.422Z,78.50
2023-01-02T06:09:04.766Z,79.03
2023-01-02T06:11:33.520Z,79.09
2023-01-02T06:14:01.950Z,79.04
2023-01-02T06:16:31.480Z,78.90
2023-01-02T06:18:59.676Z,78.59
2023-01-02T06:21:27.810Z,78.90
2023-01-02T06:23:58.308Z,78.85
2023-01-02T06:26:34.210Z,78.77
2023-01-02T06:29:04.682Z,78.79
2023-01-02T06:31:34.324Z,78.44
2023-01-02T06:34:04.283Z,78.01
2023-01-02T06:36:34.315Z,77.86
2023-01-02T06:39:03.130Z,78.51
2023-01-02T06:41:31.886Z,78.62
2023-01-02T06:44:00.253Z,78.91
2023-01-02T06:46:28.469Z,78.56
2023-01-02T06:48:57.946Z,78.26
2023-01-02T06:51:26.197Z,78.06
2023-01-02T06:53:55.523Z,77.47
2023-01-02T06:56:24.424Z,77.70
2023-01-02T06:58:52.630Z,78.24
2023-01-02T07:01:24.150Z,77.94
2023-01-02T07:03:52.446Z,77.84
2023-01-02T07:06:23.194Z,78.01
2023-01-02T07:08:51.590Z,78.09
2023-01-02T07:11:22.140Z,78.24
2023-01-02T07:13:52.459Z,78.04
2023-01-02T07:16:22.498Z,77.43
2023-01-02T07:18:53.568Z,76.18
2023-01-02T07:21:23.820Z,75.32
2023-01-02T07:23:51.978Z,75.09
2023-01-02T07:26:20.503Z,74.41
2023-01-02T07:28:48.693Z,74.15
2023-01-02T07:31:18.769Z,74.15
2023-01-02T07:33:47.259Z,75.34
2023-01-02T07:36:17.181Z,76.08
2023-01-02T07:38:51.355Z,76.63
2023-01-02T07:41:21.477Z,76.44
2023-01-02T07:43:50.544Z,75.78
2023-01-02T07:46:20.869Z,75.60
2023-01-02T07:48:50.416Z,75.26
2023-01-02T07:51:24.751Z,75.25
2023-01-02T07:53:58.196Z,74.86
2023-01-02T07:56:27.020Z,74.70
2023-01-02T07:58:55.565Z,74.45
2023-01-02T08:01:24.300Z,74.01
2023-01-02T08:03:52.750Z,73.76
2023-01-02T08:06:22.020Z,73.69
2023-01-02T08:08:50.427Z,73.51
2023-01-02T08:11:22.307Z,73.18
2023-01-02T08:13:51.030Z,72.43
2023-01-02T08:16:21.038Z,72.02
2023-01-02T08:18:51.370Z,72.11
2023-01-02T08:21:19.639Z,72.17
2023-01-02T08:23:47.779Z,72.31
2023-01-02T08:26:16.239Z,72.26
2023-01-02T08:28:46.363Z,72.12
2023-01-02T08:31:17.876Z,71.83
2023-01-02T08:33:46.439Z,71.97
2023-01-02T08:36:15.304Z,71.64
2023-01-02T08:38:43.868Z,71.31
2023-01-02T08:41:12.302Z,70.92
2023-01-02T08:43:41.192Z,71.08
2023-01-02T08:46:11.095Z,71.19
2023-01-02T08:48:39.320Z,71.35
2023-01-02T08:51:07.707Z,71.29
2023-01-02T08:53:35.890Z,71.13
2023-01-02T08:56:20.945Z,71.03
2023-01-02T08:58:54.125Z,70.63
2023-01-02T09:01:26.305Z,70.73
2023-01-02T09:03:55.441Z,70.57
2023-01-02T09:06:25.607Z,70.93
2023-01-02T09:08:55.459Z,71.19
2023-01-02T09:11:25.404Z,71.21
2023-01-02T09:13:54.069Z,70.80
2023-01-02T09:16:24.395Z,70.78
2023-01-02T09:18:53.197Z,71.19
2023-01-02T09:21:21.408Z,71.21
2023-01-02T09:23:49.571Z,71.03
2023-01-02T09:26:18.147Z,70.79
2023-01-02T09:28:46.938Z,71.47
2023-01-02T09:31:17.018Z,70.94
2023-01-02T09:33:48.192Z,71.09
2023-01-02T09:36:18.391Z,70.85
2023-01-02T09:38:52.064Z,70.66
2023-01-02T09:41:34.715Z,70.20
2023-01-02T09:44:06.841Z,70.08
2023-01-02T09:46:45.422Z,70.29
2023-01-02T09:49:18.747Z,70.29
2023-01-02T09:51:47.710Z,70.64
2023-01-02T09:54:23.572Z,69.88
2023-01-02T09:57:04.415Z,69.92
2023-01-02T09:59:37.539Z,69.49
2023-01-02T10:02:20.023Z,69.25
2023-01-02T10:05:02.803Z,69.40
2023-01-02T10:07:39.879Z,68.30
2023-01-02T10:10:14.628Z,68.26
2023-01-02T10:12:53.067Z,67.88
2023-01-02T10:15:27.134Z,67.44
2023-01-02T10:18:00.118Z,67.59
2023-01-02T10:20:36.777Z,67.08
2023-01-02T10:23:10.831Z,66.94
2023-01-02T10:25:43.215Z,66.56
2023-01-02T10:28:25.616Z,66.67
2023-01-02T10:31:05.415Z,66.27
2023-01-02T10:33:43.333Z,66.38
2023-01-02T10:36:24.247Z,65.96
2023-01-02T10:38:52.798Z,66.27
2023-01-02T10:41:21.972Z,66.22
2023-01-02T10:43:55.352Z,66.34
2023-01-02T10:46:23.693Z,66.10
2023-01-02T10:48:52.534Z,66.73
2023-01-02T10:51:23.987Z,66.51
2023-01-02T10:54:03.561Z,66.31
2023-01-02T10:56:35.203Z,66.32
2023-01-02T10:59:03.958Z,66.48
2023-01-02T11:01:34.039Z,66.88
2023-01-02T11:04:14.173Z,66.73
2023-01-02T11:06:53.687Z,66.52
2023-01-02T11:09:25.050Z,66.69
2023-01-02T11:11:55.350Z,66.62
2023-01-02T11:14:28.497Z,66.73
2023-01-02T11:17:04.753Z,66.89
2023-01-02T11:19:40.682Z,67.62
2023-01-02T11:22:11.563Z,67.35
2023-01-02T11:24:59.962Z,67.82
2023-01-02T11:27:34.461Z,67.80
2023-01-02T11:30:03.287Z,68.08
2023-01-02T11:32:39.567Z,68.04
2023-01-02T11:35:33.073Z,68.06
2023-01-02T11:38:03.897Z,68.09
2023-01-02T11:40:33.512Z,67.85
2023-01-02T11:43:24.796Z,67.88
2023-01-02T11:45:53.942Z,67.76
2023-01-02T11:48:24.835Z,67.46
2023-01-02T11:50:53.933Z,67.48
2023-01-02T11:53:31.191Z,68.10
2023-01-02T11:56:06.795Z,68.13
2023-01-02T11:58:41.763Z,68.14
2023-01-02T12:01:18.250Z,68.23
2023-01-02T12:03:46.707Z,68.93
2023-01-02T12:06:19.065Z,69.15
2023-01-02T12:09:03.507Z,69.22
2023-01-02T12:11:49.945Z,69.38
2023-01-02T12:14:21.708Z,69.49
2023-01-02T12:16:57.606Z,69.05
2023-01-02T12:20:05.179Z,68.89
2023-01-02T12:22:54.724Z,68.61
2023-01-02T12:25:39.867Z,68.40
2023-01-02T12:28:19.265Z,68.04
2023-01-02T12:30:54.679Z,67.84
2023-01-02T12:33:42.006Z,67.47
2023-01-02T12:36:37.403Z,67.43
2023-01-02T12:39:19.284Z,66.96
2023-01-02T12:42:01.060Z,67.05
2023-01-02T12:44:46.918Z,67.42
2023-01-02T12:47:26.845Z,66.96
2023-01-02T12:50:18.455Z,66.73
2023-01-02T12:52:59.019Z,66.79
2023-01-02T12:55:38.632Z,66.95
2023-01-02T12:58:21.699Z,67.10
2023-01-02T13:01:05.786Z,66.30
2023-01-02T13:03:55.331Z,66.91
2023-01-02T13:06:45.018Z,66.86
2023-01-02T13:09:22.760Z,66.65
2023-01-02T13:12:02.110Z,66.18
2023-01-02T13:14:38.116Z,66.08
2023-01-02T13:17:19.543Z,65.52
2023-01-02T13:19:55.689Z,65.78
2023-01-02T13:22:32.900Z,66.60
2023-01-02T13:25:02.149Z,66.58
2023-01-02T13:27:30.872Z,67.48
2023-01-02T13:30:03.249Z,68.72
2023-01-02T13:32:31.872Z,69.26
2023-01-02T13:35:03.564Z,69.79
2023-01-02T13:37:32.083Z,69.70
2023-01-02T13:40:03.506Z,69.52
2023-01-02T13:42:52.025Z,70.64
2023-01-02T13:45:25.049Z,71.34
2023-01-02T13:47:55.925Z,71.76
2023-01-02T13:50:28.017Z,70.98
2023-01-02T13:53:08.073Z,70.42
2023-01-02T13:55:37.598Z,70.46
2023-01-02T13:58:29.019Z,69.39
2023-01-02T14:00:58.490Z,68.47
2023-01-02T14:03:39.180Z,68.85
2023-01-02T14:06:29.899Z,67.76
2023-01-02T14:09:10.018Z,66.89
2023-01-02T14:11:57.194Z,67.29
2023-01-02T14:14:33.273Z,66.92
2023-01-02T14:17:21.165Z,66.93
2023-01-02T14:20:17.073Z,67.10
2023-01-02T14:22:48.020Z,67.28
2023-01-02T14:25:16.984Z,66.96
2023-01-02T14:27:50.786Z,66.57
2023-01-02T14:30:26.150Z,66.56
2023-01-02T14:32:57.652Z,66.37
2023-01-02T14:35:31.784Z,66.36
2023-01-02T14:38:19.569Z,65.96
2023-01-02T14:40:48.546Z,65.71
2023-01-02T14:43:34.021Z,65.96
2023-01-02T14:46:10.191Z,65.92
2023-01-02T14:48:49.191Z,65.65
2023-01-02T14:51:21.281Z,65.52
2023-01-02T14:53:52.525Z,65.31
2023-01-02T14:56:25.271Z,65.49
2023-01-02T14:58:55.015Z,65.53
2023-01-02T15:01:43.146Z,66.03
2023-01-02T15:04:22.425Z,65.30
2023-01-02T15:06:57.131Z,65.50
2023-01-02T15:09:32.987Z,65.28
2023-01-02T15:12:21.199Z,65.76
2023-01-02T15:14:49.716Z,65.72
2023-01-02T15:17:21.426Z,65.45
2023-01-02T15:19:51.132Z,65.27
2023-01-02T15:22:22.581Z,65.14
2023-01-02T15:24:52.271Z,65.15
2023-01-02T15:27:25.881Z,65.81
2023-01-02T15:29:57.055Z,65.52
2023-01-02T15:32:28.750Z,65.68
2023-01-02T15:35:20.734Z,65.70
2023-01-02T15:37:50.255Z,65.94
2023-01-02T15:40:25.328Z,65.82
2023-01-02T15:43:12.472Z,65.72
2023-01-02T15:45:45.397Z,65.85
2023-01-02T15:48:15.402Z,65.72
2023-01-02T15:50:47.473Z,66.19
2023-01-02T15:53:21.569Z,66.40
2023-01-02T15:55:50.901Z,66.34
2023-01-02T15:58:25.292Z,66.71
2023-01-02T16:01:17.286Z,66.83
2023-01-02T16:04:03.851Z,66.65
2023-01-02T16:06:35.683Z,66.43
2023-01-02T16:09:06.381Z,67.01
2023-01-02T16:11:44.378Z,66.57
2023-01-02T16:14:21.112Z,67.21
2023-01-02T16:16:53.016Z,66.83
2023-01-02T16:19:26.581Z,67.12
2023-01-02T16:22:06.622Z,67.56
2023-01-02T16:24:36.772Z,67.67
2023-01-02T16:27:06.325Z,68.41
2023-01-02T16:29:34.472Z,68.53
2023-01-02T16:32:02.968Z,69.01
2023-01-02T16:34:36.794Z,69.24
2023-01-02T16:37:38.782Z,69.44
2023-01-02T16:41:00.269Z,69.64
2023-01-02T16:43:30.300Z,70.18
2023-01-02T16:45:59.393Z,70.39
2023-01-02T16:48:29.989Z,70.71
2023-01-02T16:50:59.589Z,71.32
2023-01-02T16:53:31.994Z,71.69
2023-01-02T16:56:01.535Z,72.09
2023-01-02T16:58:30.135Z,72.72
2023-01-02T17:00:58.406Z,72.89
2023-01-02T17:03:28.235Z,73.48
2023-01-02T17:06:00.874Z,73.85
2023-01-02T17:08:33.139Z,74.31
2023-01-02T17:11:02.369Z,74.82
2023-01-02T17:13:31.263Z,74.79
2023-01-02T17:15:59.955Z,75.03
2023-01-02T17:18:28.265Z,75.52
2023-01-02T17:20:56.419Z,75.78
2023-01-02T17:23:24.704Z,75.91
2023-01-02T17:25:54.166Z,75.91
2023-01-02T17:28:22.320Z,76.24
2023-01-02T17:30:50.680Z,77.24
2023-01-02T17:33:19.751Z,78.05
2023-01-02T17:35:48.554Z,79.98
2023-01-02T17:38:16.858Z,81.34
2023-01-02T17:40:46.136Z,82.28
2023-01-02T17:43:16.419Z,83.02
2023-01-02T17:45:44.635Z,83.71
2023-01-02T17:48:15.265Z,83.70
2023-01-02T17:50:51.498Z,84.08
2023-01-02T17:53:19.682Z,84.20
2023-01-02T17:55:52.343Z,84.74
2023-01-02T17:58:42.232Z,85.66
2023-01-02T18:01:15.462Z,86.99
2023-01-02T18:03:43.931Z,88.75
2023-01-02T18:06:12.458Z,89.62
2023-01-02T18:08:41.535Z,90.41
2023-01-02T18:11:11.770Z,90.12
2023-01-02T18:13:46.107Z,90.42
2023-01-02T18:16:16.411Z,90.46
2023-01-02T18:18:45.598Z,90.81
2023-01-02T18:21:17.691Z,90.93
2023-01-02T18:23:47.499Z,90.75
2023-01-02T18:26:18.764Z,90.82
2023-01-02T18:28:56.984Z,90.48
2023-01-02T18:31:26.607Z,89.98
2023-01-02T18:33:59.707Z,89.77
2023-01-02T18:36:29.392Z,89.93
2023-01-02T18:39:10.875Z,89.29
2023-01-02T18:41:39.858Z,88.42
2023-01-02T18:44:28.778Z,87.60
2023-01-02T18:47:05.062Z,87.53
2023-01-02T18:49:41.373Z,87.34
2023-01-02T18:52:25.058Z,87.14
2023-01-02T18:54:59.583Z,86.81
2023-01-02T18:57:34.782Z,87.01
2023-01-02T19:00:28.272Z,86.82
2023-01-02T19:03:00.632Z,86.60
2023-01-02T19:05:30.321Z,86.71
2023-01-02T19:08:14.560Z,86.33
2023-01-02T19:10:46.049Z,85.78
2023-01-02T19:13:18.091Z,85.22
2023-01-02T19:15:51.888Z,85.10
2023-01-02T19:18:36.146Z,85.10
2023-01-02T19:21:15.641Z,84.63
2023-01-02T19:23:52.572Z,84.42
2023-01-02T19:26:27.134Z,84.62
2023-01-02T19:28:59.269Z,84.30
2023-01-02T19:31:36.176Z,84.55
2023-01-02T19:34:04.814Z,84.13
2023-01-02T19:36:39.775Z,83.67
2023-01-02T19:39:24.197Z,83.23
2023-01-02T19:42:09.895Z,83.15
2023-01-02T19:44:38.161Z,83.11
2023-01-02T19:47:07.980Z,83.15
2023-01-02T19:49:36.146Z,83.32
2023-01-02T19:52:04.360Z,83.11
2023-01-02T19:54:32.519Z,82.44
2023-01-02T19:57:00.919Z,82.70
2023-01-02T19:59:29.071Z,82.95
2023-01-02T20:01:57.880Z,82.33
2023-01-02T20:04:27.544Z,81.73
2023-01-02T20:06:55.896Z,81.48
2023-01-02T20:09:25.749Z,81.52
2023-01-02T20:12:11.569Z,81.41
2023-01-02T20:14:40.711Z,81.83
2023-01-02T20:17:09.407Z,81.89
2023-01-02T20:19:39.298Z,82.37
2023-01-02T20:22:08.429Z,82.45
2023-01-02T20:24:36.931Z,82.88
2023-01-02T20:27:06.763Z,83.26
2023-01-02T20:29:34.946Z,83.12
2023-01-02T20:32:03.122Z,83.61
2023-01-02T20:34:31.265Z,84.29
2023-01-02T20:37:00.844Z,85.52
2023-01-02T20:39:29.002Z,86.84
2023-01-02T20:41:57.141Z,87.37
2023-01-02T20:44:25.298Z,88.26
2023-01-02T20:46:55.029Z,89.43
2023-01-02T20:49:25.234Z,90.22
2023-01-02T20:51:55.932Z,90.58
2023-01-02T20:54:26.551Z,90.38
2023-01-02T20:56:55.180Z,90.21
2023-01-02T20:59:23.549Z,90.09
2023-01-02T21:01:52.123Z,90.24
2023-01-02T21:04:27.795Z,90.82
2023-01-02T21:06:59.003Z,90.87
2023-01-02T21:09:28.513Z,90.78
2023-01-02T21:11:57.047Z,90.78
2023-01-02T21:14:25.322Z,90.70
2023-01-02T21:16:55.203Z,91.01
2023-01-02T21:19:23.597Z,91.33
2023-01-02T21:21:51.770Z,90.85
2023-01-02T21:24:19.943Z,90.36
2023-01-02T21:26:49.398Z,89.78
2023-01-02T21:29:17.605Z,89.22
2023-01-02T21:31:45.808Z,89.14
2023-01-02T21:34:14.033Z,89.00
2023-01-02T21:36:42.159Z,88.26
2023-01-02T21:39:10.531Z,87.83
2023-01-02T21:41:56.397Z,88.02
2023-01-02T21:44:25.889Z,87.87
2023-01-02T21:46:54.077Z,88.14
2023-01-02T21:49:22.331Z,88.25
2023-01-02T21:51:50.504Z,88.46
2023-01-02T21:54:18.732Z,88.42
2023-01-02T21:56:46.942Z,88.59
2023-01-02T21:59:15.096Z,88.44
2023-01-02T22:01:44.825Z,88.71
2023-01-02T22:04:13.234Z,88.86
2023-01-02T22:07:04.350Z,88.90
2023-01-02T22:09:29.609Z,89.06
2023-01-02T22:11:59.933Z,89.25
2023-01-02T22:14:30.223Z,89.52
2023-01-02T22:17:01.731Z,89.73
2023-01-02T22:19:31.031Z,89.86
2023-01-02T22:21:59.546Z,89.94
2023-01-02T22:24:28.191Z,89.92
2023-01-02T22:26:59.070Z,90.14
2023-01-02T22:29:51.507Z,90.22
2023-01-02T22:32:18.953Z,90.49
2023-01-02T22:34:47.477Z,90.56
2023-01-02T22:37:22.428Z,90.17
2023-01-02T22:39:51.615Z,90.86
2023-01-02T22:45:36.753Z,90.64
2023-01-02T22:48:15.336Z,90.46
2023-01-02T22:50:45.790Z,90.17
2023-01-02T22:53:20.286Z,89.69
2023-01-02T22:55:49.294Z,90.15
2023-01-02T22:58:17.819Z,89.76
2023-01-02T23:00:47.614Z,90.06
2023-01-02T23:03:17.572Z,89.72
2023-01-02T23:05:45.853Z,89.28
2023-01-02T23:08:14.623Z,89.52
2023-01-02T23:10:42.834Z,89.59
2023-01-02T23:13:11.030Z,89.78
2023-01-02T23:15:59.865Z,89.88
2023-01-02T23:18:50.472Z,90.48
2023-01-02T23:21:25.105Z,91.14
2023-01-02T23:23:53.659Z,91.10
2023-01-02T23:26:23.686Z,91.11
2023-01-02T23:29:08.356Z,91.12
2023-01-02T23:31:38.863Z,91.25
2023-01-02T23:34:09.054Z,91.46
2023-01-02T23:36:38.312Z,91.67
2023-01-02T23:39:11.634Z,91.91
2023-01-02T23:41:40.551Z,91.89
2023-01-02T23:44:10.192Z,91.83
2023-01-02T23:46:38.645Z,92.00
2023-01-02T23:49:09.134Z,92.15
2023-01-02T23:51:37.566Z,92.37
2023-01-02T23:54:06.915Z,92.30
2023-01-02T23:56:36.894Z,92.31
2023-01-02T23:59:07.969Z,92.32
